METAR Data
IDs: Format: Raw Decoded Include TAF

Data at: 2253 UTC 25 Oct 2021

PAMC 252227Z AUTO 33006KT 4SM -SN BR OVC038 M02/M04 A2927 RMK AO2 P0000 T10171039 TSNO
PAMC 252119Z AUTO 35003KT 3SM -SN BR OVC038 M02/M03 A2927 RMK AO2 P0000 T10171033 TSNO
PAMC 252053Z AUTO 34004KT 6SM -SN BR OVC038 M02/M04 A2927 RMK AO2 SNB16 SLP918 P0000 60000 T10171039 51003 TSNO
PAMC 251853Z AUTO 00000KT 10SM OVC035 M02/M04 A2926 RMK AO2 SLP916 T10221039 TSNO
PAMC 251753Z AUTO 35004KT 10SM OVC037 M02/M04 A2926 RMK AO2 SLP915 60000 T10221039 11022 21022 58003 TSNO
PAMC 251653Z AUTO 30003KT 10SM OVC033 M02/M04 A2926 RMK AO2 SLP916 T10221039 TSNO
PAMC 251626Z AUTO 29003KT 10SM SCT027 OVC034 M02/M03 A2927 RMK AO2 T10221033 TSNO
PAMC 251553Z AUTO 30003KT 10SM OVC029 M02/M03 A2926 RMK AO2 SLP916 T10221033 TSNO
PAMC 251453Z AUTO 00000KT 10SM OVC027 M02/M03 A2927 RMK AO2 SLP918 60000 T10221033 56010 TSNO
PAMC 251353Z AUTO 31003KT 10SM OVC028 M02/M03 A2927 RMK AO2 SNB19E38 SLP920 P0000 T10221033 TSNO
PAMC 251253Z AUTO 29004KT 10SM OVC033 M02/M03 A2929 RMK AO2 SNE37 SLP924 P0000 T10221033 TSNO
PAMC 251153Z AUTO 30004KT 6SM -SN BR OVC039 M02/M03 A2930 RMK AO2 SLP928 P0000 60001 70005 T10221033 11011 21022 56008 TSNO
PAMC 251045Z AUTO 30003KT 7SM -SN OVC030 M02/M03 A2931 RMK AO2 SNE03B37 P0001 T10221028 TSNO
PAMC 250753Z AUTO 00000KT 10SM OVC026 M02/M03 A2933 RMK AO2 SLP938 T10171028 TSNO
PAMC 250553Z AUTO 31003KT 5SM -SN BR OVC009 M01/M02 A2935 RMK AO2 SLP946 P0001 60004 T10111022 11006 21011 58015 TSNO
PAMC 250427Z AUTO 00000KT 3SM -SN BR OVC029 M01/M02 A2937 RMK AO2 P0001 T10111017 TSNO
PAMC 250415Z AUTO 00000KT 3SM -SN BR FEW025 BKN030 OVC039 M01/M02 A2938 RMK AO2 P0000 T10111017 TSNO
PAMC 250353Z AUTO 29003KT 2SM -SN BR FEW013 BKN020 OVC035 M01/M02 A2938 RMK AO2 SLP957 P0001 T10111017 TSNO
PAMC 250253Z AUTO 00000KT 4SM -SN BR FEW007 OVC030 M01/M01 A2940 RMK AO2 SNE05B48 SLP961 P0000 60001 T10061011 58008 TSNO
PAMC 250201Z AUTO 00000KT 3SM -SN BR BKN030 OVC036 M01/M01 A2941 RMK AO2 P0000 T10061011 TSNO
PAMC 250153Z AUTO 00000KT 2 1/2SM -SN BR OVC033 M01/M01 A2941 RMK AO2 SLP966 P0000 T10061011 TSNO
PAMC 250136Z AUTO 00000KT 1 1/2SM -SN BR FEW005 BKN025 OVC036 M01/M01 A2941 RMK AO2 P0000 T10061011 TSNO
PAMC 250101Z AUTO 00000KT 2SM -SN BR SCT013 BKN025 OVC033 M01/M01 A2942 RMK AO2 P0000 T10061011 TSNO
PAMC 250053Z AUTO 00000KT 2 1/2SM -SN BR BKN011 BKN019 OVC033 M01/M01 A2942 RMK AO2 SLP969 P0001 T10061011 TSNO
PAMC 250034Z AUTO 00000KT 2 1/2SM -SN BR SCT016 OVC033 M01/M01 A2943 RMK AO2 P0001 T10061011 TSNO
PAMC 242353Z AUTO 00000KT 2SM -SN BR FEW011 BKN016 OVC031 M01/M02 A2943 RMK AO2 SNB35 SLP974 P0000 60000 T10061017 11006 21022 58007 TSNO
PAMC 242253Z AUTO 00000KT 10SM FEW014 OVC028 M01/M02 A2945 RMK AO2 SNB25E34 SLP979 P0000 T10061017 TSNO
PAMC 242230Z AUTO 00000KT 9SM -SN FEW014 BKN028 OVC033 M01/M02 A2945 RMK AO2 SNB25 P0000 T10061017 TSNO
PAMC 242111Z AUTO 11004KT 3SM -SN BR OVC034 M02/M02 A2946 RMK AO2 P0000 T10171022 TSNO
PAMC 242100Z AUTO 10004KT 2 1/2SM -SN BR OVC035 M02/M03 A2946 RMK AO2 P0000 T10171028 TSNO
PAMC 242053Z AUTO 10003KT 3SM -SN BR FEW022 OVC035 M02/M03 A2946 RMK AO2 SNB41 SLP984 P0000 60000 T10171028 55000 TSNO
PAMC 242049Z AUTO 09004KT 4SM -SN BR SCT022 OVC035 M02/M03 A2946 RMK AO2 SNB41 P0000 TSNO
PAMC 241953Z AUTO 10003KT 10SM SCT020 OVC032 M02/M03 A2946 RMK AO2 SLP984 T10221028 TSNO
PAMC 241942Z AUTO 09003KT 10SM BKN020 BKN032 OVC039 M02/M03 A2946 RMK AO2 T10221028 TSNO
PAMC 241925Z AUTO 09003KT 10SM FEW019 OVC030 M02/M03 A2946 RMK AO2 T10221033 TSNO
PAMC 241853Z AUTO 12003KT 10SM OVC025 M02/M03 A2947 RMK AO2 SLP986 T10221033 TSNO
PAMC 241753Z AUTO 09003KT 10SM OVC020 M02/M03 A2946 RMK AO2 SLP985 T10221033 11022 21039 50004 TSNO
PAMC 241653Z AUTO 11003KT 10SM OVC021 M03/M03 A2947 RMK AO2 SLP986 T10281033 TSNO
PAMC 241553Z AUTO 00000KT 10SM OVC016 M03/M03 A2946 RMK AO2 SLP985 T10281033 TSNO
PAMC 241336Z AUTO 00000KT 10SM OVC015 M03/M04 A2944 RMK AO2 T10331044 TSNO